createdAt,value
2022-10-01T00:01:15.740Z,100185.60
2022-10-01T00:06:23.056Z,100183.80
2022-10-01T00:11:27.399Z,100181.00
2022-10-01T00:16:32.599Z,100173.40
2022-10-01T00:21:36.830Z,100171.60
2022-10-01T00:26:43.477Z,100166.60
2022-10-01T00:31:47.439Z,100157.60
2022-10-01T00:36:51.142Z,100159.20
2022-10-01T00:41:55.158Z,100159.80
2022-10-01T00:47:17.101Z,100154.80
2022-10-01T00:52:29.293Z,100153.00
2022-10-01T00:57:34.950Z,100154.20
2022-10-01T01:02:39.069Z,100154.20
2022-10-01T01:07:47.859Z,100148.20
2022-10-01T01:13:39.143Z,100149.40
2022-10-01T01:19:13.234Z,100145.20
2022-10-01T01:24:58.175Z,100141.80
2022-10-01T01:30:21.150Z,100139.00
2022-10-01T01:35:35.467Z,100132.80
2022-10-01T01:40:43.639Z,100130.40
2022-10-01T01:45:51.732Z,100136.40
2022-10-01T01:51:05.376Z,100139.80
2022-10-01T01:56:09.326Z,100139.60
2022-10-01T02:01:36.806Z,100141.60
2022-10-01T02:07:15.731Z,100144.40
2022-10-01T02:13:00.444Z,100132.00
2022-10-01T02:18:32.831Z,100133.40
2022-10-01T02:23:53.809Z,100135.40
2022-10-01T02:29:04.539Z,100132.20
2022-10-01T02:34:12.822Z,100124.40
2022-10-01T02:39:20.771Z,100123.80
2022-10-01T02:44:38.510Z,100128.00
2022-10-01T02:49:42.382Z,100130.60
2022-10-01T02:55:06.237Z,100131.60
2022-10-01T03:00:15.749Z,100139.60
2022-10-01T03:05:21.019Z,100131.80
2022-10-01T03:10:24.760Z,100122.20
2022-10-01T03:15:29.516Z,100119.60
2022-10-01T03:20:33.342Z,100120.00
2022-10-01T03:25:37.263Z,100115.60
2022-10-01T03:30:40.985Z,100112.00
2022-10-01T03:35:44.801Z,100109.00
2022-10-01T03:40:48.734Z,100105.80
2022-10-01T03:45:52.483Z,100101.00
2022-10-01T03:50:59.298Z,100099.00
2022-10-01T03:56:05.332Z,100093.60
2022-10-01T04:01:09.153Z,100087.60
2022-10-01T04:06:13.551Z,100082.80
2022-10-01T04:11:17.260Z,100076.80
2022-10-01T04:16:21.247Z,100071.00
2022-10-01T04:21:25.294Z,100070.20
2022-10-01T04:26:30.117Z,100073.40
2022-10-01T04:31:35.747Z,100069.40
2022-10-01T04:36:40.126Z,100059.80
2022-10-01T04:41:43.812Z,100057.00
2022-10-01T04:46:47.799Z,100052.00
2022-10-01T04:51:51.484Z,100048.00
2022-10-01T04:56:55.418Z,100045.00
2022-10-01T05:01:59.293Z,100046.00
2022-10-01T05:07:03.265Z,100044.20
2022-10-01T05:12:08.631Z,100042.60
2022-10-01T05:17:12.453Z,100042.40
2022-10-01T05:22:17.202Z,100046.00
2022-10-01T05:27:21.021Z,100062.20
2022-10-01T05:32:25.039Z,100055.40
2022-10-01T05:37:29.122Z,100054.20
2022-10-01T05:42:32.801Z,100059.60
2022-10-01T05:47:36.523Z,100063.00
2022-10-01T05:52:41.784Z,100066.00
2022-10-01T05:57:45.504Z,100064.80
2022-10-01T06:02:53.618Z,100061.60
2022-10-01T06:07:58.087Z,100054.80
2022-10-01T06:13:04.765Z,100056.40
2022-10-01T06:18:11.501Z,100051.40
2022-10-01T06:23:15.896Z,100048.80
2022-10-01T06:28:20.089Z,100052.60
2022-10-01T06:33:24.465Z,100054.80
2022-10-01T06:38:28.286Z,100053.00
2022-10-01T06:43:34.165Z,100051.40
2022-10-01T06:48:37.983Z,100052.20
2022-10-01T06:53:42.020Z,100054.60
2022-10-01T06:58:45.733Z,100051.80
2022-10-01T07:03:49.665Z,100049.80
2022-10-01T07:08:53.411Z,100044.20
2022-10-01T07:13:58.258Z,100046.40
2022-10-01T07:19:02.673Z,100043.60
2022-10-01T07:24:07.106Z,100035.40
2022-10-01T07:29:11.363Z,100030.40
2022-10-01T07:34:16.599Z,100030.20
2022-10-01T07:39:45.615Z,100030.40
2022-10-01T07:44:49.444Z,100019.20
2022-10-01T07:49:58.470Z,100015.40
2022-10-01T07:55:03.134Z,100008.20
2022-10-01T08:00:10.046Z,100003.40
2022-10-01T08:05:18.386Z,99998.40
2022-10-01T08:10:23.646Z,100000.40
2022-10-01T08:15:29.193Z,99997.40
2022-10-01T08:20:33.945Z,99992.00
2022-10-01T08:31:22.098Z,99980.00
2022-10-01T08:36:31.453Z,99974.20
2022-10-01T08:42:20.160Z,99974.60
2022-10-01T08:47:36.404Z,99968.20
2022-10-01T08:52:55.450Z,99971.00
2022-10-01T08:58:05.137Z,99966.20
2022-10-01T09:03:15.326Z,99962.20
2022-10-01T09:08:46.455Z,99953.00
2022-10-01T09:14:26.232Z,99942.60
2022-10-01T09:19:41.154Z,99942.40
2022-10-01T09:24:55.562Z,99938.00
2022-10-01T09:30:16.957Z,99922.60
2022-10-01T09:35:48.189Z,99916.00
2022-10-01T09:40:55.692Z,99909.80
2022-10-01T09:46:00.363Z,99911.40
2022-10-01T09:51:40.249Z,99908.80
2022-10-01T09:57:11.941Z,99898.00
2022-10-01T10:02:25.074Z,99892.20
2022-10-01T10:07:32.919Z,99894.20
2022-10-01T10:12:37.400Z,99875.00
2022-10-01T10:17:46.739Z,99863.40
2022-10-01T10:22:50.872Z,99861.20
2022-10-01T10:27:57.240Z,99849.40
2022-10-01T10:33:08.501Z,99841.00
2022-10-01T10:38:22.725Z,99840.20
2022-10-01T10:43:34.831Z,99837.60
2022-10-01T10:48:50.557Z,99829.80
2022-10-01T10:53:55.502Z,99828.60
2022-10-01T10:59:11.093Z,99816.20
2022-10-01T11:04:44.790Z,99808.20
2022-10-01T11:10:08.703Z,99806.60
2022-10-01T11:15:36.999Z,99799.80
2022-10-01T11:21:11.655Z,99792.60
2022-10-01T11:26:31.534Z,99784.60
2022-10-01T11:31:59.986Z,99791.40
2022-10-01T11:37:29.081Z,99782.40
2022-10-01T11:42:38.464Z,99778.40
2022-10-01T11:47:53.149Z,99766.80
2022-10-01T11:53:20.080Z,99757.20
2022-10-01T11:58:58.138Z,99755.20
2022-10-01T12:04:26.626Z,99752.20
2022-10-01T12:09:58.428Z,99751.80
2022-10-01T12:15:32.119Z,99743.60
2022-10-01T12:21:01.173Z,99747.20
2022-10-01T12:26:31.610Z,99739.00
2022-10-01T12:32:00.597Z,99731.40
2022-10-01T12:37:39.445Z,99733.40
2022-10-01T12:43:06.520Z,99725.40
2022-10-01T12:48:48.190Z,99722.20
2022-10-01T12:54:21.709Z,99712.80
2022-10-01T12:59:44.944Z,99706.00
2022-10-01T13:05:28.580Z,99698.20
2022-10-01T13:11:13.469Z,99689.20
2022-10-01T13:16:50.201Z,99692.00
2022-10-01T13:22:19.502Z,99684.80
2022-10-01T13:27:42.895Z,99679.40
2022-10-01T13:32:58.878Z,99674.40
2022-10-01T13:38:29.839Z,99665.20
2022-10-01T13:43:36.180Z,99659.00
2022-10-01T13:48:49.305Z,99651.60
2022-10-01T13:54:03.475Z,99637.20
2022-10-01T13:59:37.064Z,99637.40
2022-10-01T14:04:44.410Z,99635.60
2022-10-01T14:09:59.959Z,99624.20
2022-10-01T14:15:41.454Z,99619.20
2022-10-01T14:21:30.953Z,99610.60
2022-10-01T14:27:09.290Z,99607.20
2022-10-01T14:32:28.985Z,99612.00
2022-10-01T14:37:40.112Z,99603.00
2022-10-01T14:42:45.127Z,99597.60
2022-10-01T14:48:02.785Z,99592.20
2022-10-01T14:53:19.528Z,99580.40
2022-10-01T14:59:21.304Z,99577.80
2022-10-01T15:04:28.666Z,99577.40
2022-10-01T15:09:35.273Z,99563.80
2022-10-01T15:14:44.025Z,99557.00
2022-10-01T15:19:54.207Z,99562.00
2022-10-01T15:25:02.728Z,99551.80
2022-10-01T15:30:17.204Z,99548.60
2022-10-01T15:35:34.165Z,99536.60
2022-10-01T15:40:43.967Z,99537.60
2022-10-01T15:46:18.416Z,99530.00
2022-10-01T15:51:29.592Z,99525.40
2022-10-01T15:56:36.754Z,99520.60
2022-10-01T16:01:44.888Z,99519.60
2022-10-01T16:06:55.986Z,99515.20
2022-10-01T16:12:07.419Z,99513.40
2022-10-01T16:17:20.306Z,99509.60
2022-10-01T16:22:32.143Z,99504.20
2022-10-01T16:27:54.021Z,99497.60
2022-10-01T16:33:09.056Z,99490.60
2022-10-01T16:38:36.238Z,99485.40
2022-10-01T16:44:45.501Z,99479.80
2022-10-01T16:51:16.757Z,99482.40
2022-10-01T17:05:32.138Z,99469.80
2022-10-01T17:10:42.304Z,99468.40
2022-10-01T17:15:49.385Z,99465.20
2022-10-01T17:20:53.533Z,99467.00
2022-10-01T17:25:57.855Z,99465.20
2022-10-01T17:31:03.001Z,99462.60
2022-10-01T17:36:10.864Z,99458.00
2022-10-01T17:41:15.378Z,99451.40
2022-10-01T17:46:20.348Z,99447.80
2022-10-01T17:51:24.409Z,99444.20
2022-10-01T17:56:33.330Z,99442.80
2022-10-01T18:01:37.542Z,99435.20
2022-10-01T18:06:42.444Z,99436.20
2022-10-01T18:11:46.613Z,99442.60
2022-10-01T18:16:51.697Z,99438.00
2022-10-01T18:22:15.039Z,99433.00
2022-10-01T18:28:34.277Z,99423.20
2022-10-01T18:34:06.490Z,99423.00
2022-10-01T18:39:48.050Z,99420.00
2022-10-01T18:45:03.885Z,99412.40
2022-10-01T18:50:37.678Z,99411.20
2022-10-01T18:56:17.654Z,99406.80
2022-10-01T19:01:48.621Z,99405.40
2022-10-01T19:07:35.460Z,99403.60
2022-10-01T19:12:50.377Z,99396.60
2022-10-01T19:22:03.437Z,99383.00
2022-10-01T19:27:58.059Z,99381.40
2022-10-01T19:33:15.667Z,99377.00
2022-10-01T19:38:40.390Z,99373.40
2022-10-01T19:44:30.400Z,99367.40
2022-10-01T19:49:39.793Z,99366.20
2022-10-01T19:54:59.556Z,99356.80
2022-10-01T20:00:18.680Z,99357.20
2022-10-01T20:05:38.540Z,99355.00
2022-10-01T20:10:55.136Z,99349.20
2022-10-01T20:16:41.523Z,99352.80
2022-10-01T20:21:51.342Z,99360.60
2022-10-01T20:27:13.285Z,99365.80
2022-10-01T20:32:37.061Z,99371.80
2022-10-01T20:38:11.741Z,99373.20
2022-10-01T20:43:37.355Z,99368.60
2022-10-01T20:48:52.714Z,99371.40
2022-10-01T20:54:10.999Z,99368.40
2022-10-01T20:59:30.354Z,99353.20
2022-10-01T21:04:41.362Z,99356.20
2022-10-01T21:09:50.534Z,99354.60
2022-10-01T21:14:57.301Z,99352.40
2022-10-01T21:20:48.258Z,99355.00
2022-10-01T21:26:15.837Z,99358.00
2022-10-01T21:31:42.141Z,99359.80
2022-10-01T21:36:56.297Z,99362.60
2022-10-01T21:42:11.964Z,99368.80
2022-10-01T21:48:03.696Z,99370.80
2022-10-01T21:53:32.944Z,99368.20
2022-10-01T21:58:59.208Z,99360.40
2022-10-01T22:04:35.792Z,99362.60
2022-10-01T22:10:03.148Z,99362.60
2022-10-01T22:15:30.503Z,99364.80
2022-10-01T22:20:36.295Z,99366.40
2022-10-01T22:25:58.054Z,99364.80
2022-10-01T22:31:07.080Z,99363.00
2022-10-01T22:37:02.419Z,99360.00
2022-10-01T22:42:21.231Z,99360.00
2022-10-01T22:47:43.138Z,99357.00
2022-10-01T22:53:11.974Z,99356.80
2022-10-01T22:59:09.201Z,99354.60
2022-10-01T23:04:59.442Z,99352.40
2022-10-01T23:10:10.967Z,99350.00
2022-10-01T23:15:40.272Z,99354.20
2022-10-01T23:21:15.633Z,99355.60
2022-10-01T23:26:40.954Z,99355.00
2022-10-01T23:32:19.494Z,99357.40
2022-10-01T23:38:03.779Z,99354.20
2022-10-01T23:43:24.585Z,99358.00
2022-10-01T23:48:48.805Z,99359.80
2022-10-01T23:54:19.865Z,99358.60
2022-10-01T23:59:50.976Z,99363.40
